Time;durP1;ratioP1;P1;durP2;ratioP2;P2;SDS_P1;SDS_P2;PMS_P1;PMS_P2;Temp;Humidity;BMP_temperature;BMP_pressure;BME280_temperature;BME280_humidity;BME280_pressure;Samples;Min_cycle;Max_cycle;Signal;HPM_P1;HPM_P2
2021/10/07 00:01:14;;;;;;;;;;;17.30;99.90;;;;;;5060257;28;910;-47
2021/10/07 00:03:40;;;;;;;;;;;17.30;99.90;;;;;;5059854;28;798;-47
2021/10/07 00:06:05;;;;;;;;;;;17.20;99.90;;;;;;5060166;28;844;-47
2021/10/07 00:08:31;;;;;;;;;;;17.20;99.90;;;;;;5060067;28;853;-47
2021/10/07 00:10:56;;;;;;;;;;;17.20;99.90;;;;;;5059969;28;1143;-47
2021/10/07 00:13:22;;;;;;;;;;;17.20;99.90;;;;;;5059935;28;1972;-47
2021/10/07 00:15:47;;;;;;;;;;;17.20;99.90;;;;;;5064244;28;1321;-47
2021/10/07 00:18:13;;;;;;;;;;;17.20;99.90;;;;;;5076068;28;754;-47
2021/10/07 00:20:38;;;;;;;;;;;17.20;99.90;;;;;;5074599;28;1005;-47
2021/10/07 00:23:04;;;;;;;;;;;17.20;99.90;;;;;;5059857;28;1136;-47
2021/10/07 00:25:29;;;;;;;;;;;17.20;99.90;;;;;;5062189;28;1358;-47
2021/10/07 00:28:02;;;;;;;;;;;17.20;99.90;;;;;;5059749;28;769;-47
2021/10/07 00:30:28;;;;;;;;;;;17.20;99.90;;;;;;5060240;28;833;-47
2021/10/07 00:33:07;;;;;;;;;;;17.20;99.90;;;;;;5049085;28;1959;-49
2021/10/07 00:40:42;;;;;;;;;;;17.10;99.90;;;;;;5075082;28;1365;-47
2021/10/07 00:43:08;;;;;;;;;;;17.10;99.90;;;;;;5067659;28;963;-47
2021/10/07 00:45:33;;;;;;;;;;;17.10;99.90;;;;;;5059518;28;911;-47
2021/10/07 00:47:59;;;;;;;;;;;17.10;99.90;;;;;;5074575;28;951;-51
2021/10/07 00:50:24;;;;;;;;;;;17.00;99.90;;;;;;5078183;28;836;-51
2021/10/07 00:52:50;;;;;;;;;;;17.00;99.90;;;;;;5076371;28;1886;-51
2021/10/07 00:55:15;;;;;;;;;;;17.00;99.90;;;;;;5077640;28;796;-51
2021/10/07 00:57:42;;;;;;;;;;;17.00;99.90;;;;;;5077637;28;883;-51
2021/10/07 01:00:08;;;;;;;;;;;17.00;99.90;;;;;;5067538;28;1025;-51
2021/10/07 01:02:33;;;;;;;;;;;17.00;99.90;;;;;;5058873;28;873;-51
2021/10/07 01:04:59;;;;;;;;;;;17.00;99.90;;;;;;5058979;28;740;-51
2021/10/07 01:07:25;;;;;;;;;;;17.00;99.90;;;;;;5059203;28;792;-51
2021/10/07 01:09:51;;;;;;;;;;;17.00;99.90;;;;;;5058871;28;1058;-50
2021/10/07 01:12:16;;;;;;;;;;;17.00;99.90;;;;;;5058792;28;1902;-51
2021/10/07 01:14:46;;;;;;;;;;;17.00;99.90;;;;;;5059106;28;841;-51
2021/10/07 01:17:13;;;;;;;;;;;16.90;99.90;;;;;;5064979;28;865;-51
2021/10/07 01:19:39;;;;;;;;;;;16.90;99.90;;;;;;5076552;28;755;-51
2021/10/07 01:22:04;;;;;;;;;;;16.90;99.90;;;;;;5076384;28;737;-51
2021/10/07 01:24:30;;;;;;;;;;;16.90;99.90;;;;;;5076574;28;877;-51
2021/10/07 01:26:55;;;;;;;;;;;16.90;99.90;;;;;;5076263;28;714;-51
2021/10/07 01:29:21;;;;;;;;;;;16.90;99.90;;;;;;5076387;28;891;-51
2021/10/07 01:31:46;;;;;;;;;;;16.90;99.90;;;;;;5076099;28;1902;-51
2021/10/07 01:34:19;;;;;;;;;;;16.90;99.90;;;;;;5076445;28;773;-47
2021/10/07 01:36:44;;;;;;;;;;;16.90;99.90;;;;;;5062336;28;1243;-51
2021/10/07 01:39:10;;;;;;;;;;;16.90;99.90;;;;;;5058605;28;832;-51
2021/10/07 01:41:36;;;;;;;;;;;16.80;99.90;;;;;;5059006;28;1386;-50
2021/10/07 01:44:02;;;;;;;;;;;16.80;99.90;;;;;;5047899;28;1183;-51
2021/10/07 01:46:27;;;;;;;;;;;16.80;99.90;;;;;;5059415;28;770;-51
2021/10/07 01:48:53;;;;;;;;;;;16.80;99.90;;;;;;5076363;28;742;-51
2021/10/07 01:51:18;;;;;;;;;;;16.80;99.90;;;;;;5076519;28;1015;-47
2021/10/07 01:53:44;;;;;;;;;;;16.80;99.90;;;;;;5076461;28;1963;-47
2021/10/07 01:56:09;;;;;;;;;;;16.80;99.90;;;;;;5076717;28;907;-47
2021/10/07 01:58:35;;;;;;;;;;;16.80;99.90;;;;;;5076461;28;863;-47
2021/10/07 02:01:00;;;;;;;;;;;16.80;99.90;;;;;;5076568;28;754;-47
2021/10/07 02:03:26;;;;;;;;;;;16.70;99.90;;;;;;5076195;28;801;-47
2021/10/07 02:05:51;;;;;;;;;;;16.70;99.90;;;;;;5076215;28;807;-47
2021/10/07 02:08:16;;;;;;;;;;;16.70;99.90;;;;;;5076226;28;915;-47
2021/10/07 02:10:42;;;;;;;;;;;16.70;99.90;;;;;;5075917;28;1199;-47
2021/10/07 02:13:08;;;;;;;;;;;16.70;99.90;;;;;;5076288;28;1979;-47
2021/10/07 02:15:33;;;;;;;;;;;16.70;99.90;;;;;;5076055;28;824;-47
2021/10/07 02:17:59;;;;;;;;;;;16.70;99.90;;;;;;5075881;28;809;-47
2021/10/07 02:20:24;;;;;;;;;;;16.70;99.90;;;;;;5075843;28;945;-47
2021/10/07 02:22:54;;;;;;;;;;;16.70;99.90;;;;;;5077392;28;857;-51
2021/10/07 02:28:14;;;;;;;;;;;16.70;99.90;;;;;;5061249;23;1581;-47
2021/10/07 02:30:41;;;;;;;;;;;16.70;99.90;;;;;;5038027;28;1065;-47
2021/10/07 02:33:07;;;;;;;;;;;16.60;99.90;;;;;;5051206;28;1975;-47
2021/10/07 02:35:32;;;;;;;;;;;16.60;99.90;;;;;;5056359;28;1130;-47
2021/10/07 02:37:59;;;;;;;;;;;16.60;99.90;;;;;;5057317;28;904;-51
2021/10/07 02:40:27;;;;;;;;;;;16.60;99.90;;;;;;5056174;28;1224;-47
2021/10/07 02:42:56;;;;;;;;;;;16.60;99.90;;;;;;5056036;28;1853;-49
2021/10/07 02:45:21;;;;;;;;;;;16.60;99.90;;;;;;5053498;28;1953;-51
2021/10/07 02:47:51;;;;;;;;;;;16.60;99.90;;;;;;5056375;28;864;-51
2021/10/07 02:50:19;;;;;;;;;;;16.60;99.90;;;;;;5056478;28;959;-51
2021/10/07 02:52:45;;;;;;;;;;;16.60;99.90;;;;;;5056159;28;1905;-47
2021/10/07 02:55:11;;;;;;;;;;;16.60;99.90;;;;;;5056349;28;752;-47
2021/10/07 02:57:37;;;;;;;;;;;16.60;99.90;;;;;;5056031;28;911;-51
2021/10/07 03:00:04;;;;;;;;;;;16.60;99.90;;;;;;5056395;28;778;-51
2021/10/07 03:02:31;;;;;;;;;;;16.60;99.90;;;;;;5056025;28;983;-51
2021/10/07 03:04:56;;;;;;;;;;;16.60;99.90;;;;;;5056019;28;909;-51
2021/10/07 03:07:23;;;;;;;;;;;16.60;99.90;;;;;;5055990;28;761;-51
2021/10/07 03:09:50;;;;;;;;;;;16.60;99.90;;;;;;5056057;28;821;-47
2021/10/07 03:12:15;;;;;;;;;;;16.60;99.90;;;;;;5055513;28;1983;-47
2021/10/07 03:14:42;;;;;;;;;;;16.60;99.90;;;;;;5055599;28;811;-47
2021/10/07 03:17:11;;;;;;;;;;;16.50;99.90;;;;;;5056108;28;884;-47
2021/10/07 03:19:37;;;;;;;;;;;16.50;99.90;;;;;;5055820;28;872;-47
2021/10/07 03:22:03;;;;;;;;;;;16.50;99.90;;;;;;5056045;28;863;-47
2021/10/07 03:24:28;;;;;;;;;;;16.50;99.90;;;;;;5055810;28;840;-47
2021/10/07 03:26:55;;;;;;;;;;;16.50;99.90;;;;;;5055151;28;1054;-47
2021/10/07 03:29:22;;;;;;;;;;;16.50;99.90;;;;;;5055799;28;913;-47
2021/10/07 03:31:48;;;;;;;;;;;16.50;99.90;;;;;;5055617;28;1906;-47
2021/10/07 03:34:14;;;;;;;;;;;16.50;99.90;;;;;;5055677;28;738;-47
2021/10/07 03:36:41;;;;;;;;;;;16.50;99.90;;;;;;5055721;28;794;-47
2021/10/07 03:39:07;;;;;;;;;;;16.50;99.90;;;;;;5055477;28;1211;-47
2021/10/07 03:41:33;;;;;;;;;;;16.50;99.90;;;;;;5055258;28;835;-47
2021/10/07 03:43:58;;;;;;;;;;;16.50;99.90;;;;;;5055519;28;921;-47
2021/10/07 03:46:25;;;;;;;;;;;16.50;99.90;;;;;;5055862;28;875;-47
2021/10/07 03:48:52;;;;;;;;;;;16.50;99.90;;;;;;5055549;28;1222;-47
2021/10/07 03:51:19;;;;;;;;;;;16.50;99.90;;;;;;5055549;28;825;-47
2021/10/07 03:53:45;;;;;;;;;;;16.40;99.90;;;;;;5055672;28;1953;-47
2021/10/07 03:56:10;;;;;;;;;;;16.40;99.90;;;;;;5055248;28;1026;-47
2021/10/07 03:58:36;;;;;;;;;;;16.40;99.90;;;;;;5055479;28;857;-47
2021/10/07 04:01:02;;;;;;;;;;;16.40;99.90;;;;;;5055726;28;823;-47
2021/10/07 04:03:28;;;;;;;;;;;16.40;99.90;;;;;;5055388;28;741;-47
2021/10/07 04:05:56;;;;;;;;;;;16.40;99.90;;;;;;5055388;28;853;-47
2021/10/07 04:08:23;;;;;;;;;;;16.40;99.90;;;;;;5055361;28;785;-47
2021/10/07 04:10:50;;;;;;;;;;;16.40;99.90;;;;;;5055440;28;858;-47
2021/10/07 04:13:22;;;;;;;;;;;16.40;99.90;;;;;;5055325;28;1894;-47
2021/10/07 04:15:49;;;;;;;;;;;16.30;99.90;;;;;;5055657;28;851;-47
2021/10/07 04:18:15;;;;;;;;;;;16.40;99.90;;;;;;5037856;28;1161;-47
2021/10/07 04:20:41;;;;;;;;;;;16.30;99.90;;;;;;5055319;28;761;-47
2021/10/07 04:23:07;;;;;;;;;;;16.40;99.90;;;;;;5037756;28;1308;-47
2021/10/07 04:25:33;;;;;;;;;;;16.30;99.90;;;;;;5055349;28;831;-47
2021/10/07 04:27:58;;;;;;;;;;;16.30;99.90;;;;;;5056941;28;1244;-47
2021/10/07 04:30:25;;;;;;;;;;;16.30;99.90;;;;;;5059170;28;1334;-47
2021/10/07 04:32:52;;;;;;;;;;;16.30;99.90;;;;;;5059015;28;1979;-47
2021/10/07 04:35:19;;;;;;;;;;;16.30;99.90;;;;;;5058905;28;793;-47
2021/10/07 04:37:44;;;;;;;;;;;16.30;99.90;;;;;;5058793;28;782;-47
2021/10/07 04:40:10;;;;;;;;;;;16.30;99.90;;;;;;5058517;28;1228;-47
2021/10/07 04:42:37;;;;;;;;;;;16.30;99.90;;;;;;5058605;28;889;-47
2021/10/07 04:45:03;;;;;;;;;;;16.30;99.90;;;;;;5058983;28;908;-47
2021/10/07 04:47:30;;;;;;;;;;;16.30;99.90;;;;;;5058700;28;834;-47
2021/10/07 04:49:56;;;;;;;;;;;16.30;99.90;;;;;;5058630;28;822;-47
2021/10/07 04:52:23;;;;;;;;;;;16.30;99.90;;;;;;5058726;28;1897;-47
2021/10/07 04:54:49;;;;;;;;;;;16.30;99.90;;;;;;5058633;28;856;-47
2021/10/07 04:57:16;;;;;;;;;;;16.30;99.90;;;;;;5058105;28;912;-47
2021/10/07 04:59:41;;;;;;;;;;;16.30;99.90;;;;;;5058374;28;825;-47
2021/10/07 05:02:07;;;;;;;;;;;16.20;99.90;;;;;;5058341;28;867;-47
2021/10/07 05:04:32;;;;;;;;;;;16.20;99.90;;;;;;5058183;28;926;-47
2021/10/07 05:06:59;;;;;;;;;;;16.30;99.90;;;;;;5058252;28;808;-47
2021/10/07 05:09:26;;;;;;;;;;;16.20;99.90;;;;;;5058473;28;756;-47
2021/10/07 05:11:52;;;;;;;;;;;16.20;99.90;;;;;;5057746;28;1898;-47
2021/10/07 05:14:17;;;;;;;;;;;16.20;99.90;;;;;;5040600;28;852;-47
2021/10/07 05:16:43;;;;;;;;;;;16.20;99.90;;;;;;5058084;28;793;-47
2021/10/07 05:19:08;;;;;;;;;;;16.20;99.90;;;;;;5058110;28;825;-47
2021/10/07 05:21:34;;;;;;;;;;;16.20;99.90;;;;;;5057240;28;730;-47
2021/10/07 05:24:00;;;;;;;;;;;16.20;99.90;;;;;;5057395;28;839;-47
2021/10/07 05:26:25;;;;;;;;;;;16.20;99.90;;;;;;5056813;28;1041;-47
2021/10/07 05:28:52;;;;;;;;;;;16.20;99.90;;;;;;5057307;28;843;-47
2021/10/07 05:31:19;;;;;;;;;;;16.20;99.90;;;;;;5057480;28;792;-47
2021/10/07 05:33:44;;;;;;;;;;;16.20;99.90;;;;;;5057951;28;1913;-47
2021/10/07 05:36:10;;;;;;;;;;;16.20;99.90;;;;;;5057624;28;731;-47
2021/10/07 05:38:37;;;;;;;;;;;16.20;99.90;;;;;;5057055;28;946;-47
2021/10/07 05:41:04;;;;;;;;;;;16.20;99.90;;;;;;5054230;28;746;-47
2021/10/07 05:43:30;;;;;;;;;;;16.20;99.90;;;;;;5057715;28;856;-47
2021/10/07 05:45:57;;;;;;;;;;;16.20;99.90;;;;;;5057452;28;940;-47
2021/10/07 05:48:24;;;;;;;;;;;16.20;99.90;;;;;;5057461;28;862;-47
2021/10/07 05:50:49;;;;;;;;;;;16.20;99.90;;;;;;5057698;28;950;-47
2021/10/07 05:53:15;;;;;;;;;;;16.20;99.90;;;;;;5039776;28;2040;-47
2021/10/07 05:55:40;;;;;;;;;;;16.20;99.90;;;;;;5057138;28;996;-47
2021/10/07 05:58:06;;;;;;;;;;;16.20;99.90;;;;;;5057382;28;793;-47
2021/10/07 06:00:32;;;;;;;;;;;16.20;99.90;;;;;;5057283;28;817;-47
2021/10/07 06:02:59;;;;;;;;;;;16.20;99.90;;;;;;5057490;28;779;-47
2021/10/07 06:05:26;;;;;;;;;;;16.20;99.90;;;;;;5057114;28;983;-47
2021/10/07 06:07:52;;;;;;;;;;;16.20;99.90;;;;;;5057113;28;710;-47
2021/10/07 06:10:17;;;;;;;;;;;16.20;99.90;;;;;;5056902;28;772;-47
2021/10/07 06:12:43;;;;;;;;;;;16.20;99.90;;;;;;5056804;28;1898;-47
2021/10/07 06:15:09;;;;;;;;;;;16.20;99.90;;;;;;5056926;28;766;-47
2021/10/07 06:17:35;;;;;;;;;;;16.20;99.90;;;;;;5056962;28;1182;-47
2021/10/07 06:20:44;;;;;;;;;;;16.20;99.90;;;;;;5057168;28;856;-47
2021/10/07 06:22:50;;;;;;;;;;;16.20;99.90;;;;;;5048661;28;1695;-47
2021/10/07 06:25:16;;;;;;;;;;;16.20;99.90;;;;;;5054775;28;1123;-47
2021/10/07 06:27:42;;;;;;;;;;;16.10;99.90;;;;;;5056369;28;1287;-47
2021/10/07 06:30:08;;;;;;;;;;;16.20;99.90;;;;;;5039134;28;777;-47
2021/10/07 06:32:34;;;;;;;;;;;16.20;99.90;;;;;;5039453;28;1906;-47
2021/10/07 06:35:00;;;;;;;;;;;16.20;99.90;;;;;;5056641;28;822;-51
2021/10/07 06:37:26;;;;;;;;;;;16.20;99.90;;;;;;5056430;28;837;-51
2021/10/07 06:39:52;;;;;;;;;;;16.20;99.90;;;;;;5056743;28;1120;-51
2021/10/07 06:42:17;;;;;;;;;;;16.20;99.90;;;;;;5056419;28;805;-51
2021/10/07 06:44:43;;;;;;;;;;;16.30;99.90;;;;;;5056457;28;972;-51
2021/10/07 06:47:08;;;;;;;;;;;16.40;99.90;;;;;;5021740;28;922;-51
2021/10/07 06:49:35;;;;;;;;;;;16.50;99.90;;;;;;5055759;28;785;-51
2021/10/07 06:52:03;;;;;;;;;;;16.50;99.90;;;;;;5056202;28;1894;-51
2021/10/07 06:54:30;;;;;;;;;;;16.60;99.90;;;;;;5056510;28;760;-51
2021/10/07 06:56:55;;;;;;;;;;;16.70;99.90;;;;;;5056077;28;848;-51
2021/10/07 06:59:21;;;;;;;;;;;16.70;99.90;;;;;;5056156;28;971;-51
2021/10/07 07:01:46;;;;;;;;;;;16.80;99.90;;;;;;5052786;28;1187;-51
2021/10/07 07:04:15;;;;;;;;;;;16.90;99.90;;;;;;5050500;28;1097;-51
2021/10/07 07:06:42;;;;;;;;;;;16.90;99.90;;;;;;5054920;28;1025;-51
2021/10/07 07:09:08;;;;;;;;;;;16.90;99.90;;;;;;5052372;28;1123;-51
2021/10/07 07:11:35;;;;;;;;;;;17.00;99.90;;;;;;5034793;28;1334;-51
2021/10/07 07:14:02;;;;;;;;;;;17.00;99.90;;;;;;5051442;28;1890;-51
2021/10/07 07:16:29;;;;;;;;;;;17.00;99.90;;;;;;5053209;28;1067;-51
2021/10/07 07:18:54;;;;;;;;;;;17.10;99.90;;;;;;5053707;28;1370;-51
2021/10/07 07:21:22;;;;;;;;;;;17.10;99.90;;;;;;5053443;28;1175;-51
2021/10/07 07:23:52;;;;;;;;;;;17.20;99.90;;;;;;5054868;28;1648;-51
2021/10/07 07:26:17;;;;;;;;;;;17.10;99.90;;;;;;5054418;28;1815;-51
2021/10/07 07:28:45;;;;;;;;;;;17.20;99.90;;;;;;5053513;28;1589;-51
2021/10/07 07:31:10;;;;;;;;;;;17.20;99.90;;;;;;5053542;28;1183;-51
2021/10/07 07:33:37;;;;;;;;;;;17.20;99.90;;;;;;5055231;28;1898;-51
2021/10/07 07:36:04;;;;;;;;;;;17.20;99.90;;;;;;5055453;28;950;-51
2021/10/07 07:38:30;;;;;;;;;;;17.20;99.90;;;;;;5055415;28;1017;-51
2021/10/07 07:40:57;;;;;;;;;;;17.20;99.90;;;;;;5054970;28;1420;-47
2021/10/07 07:43:23;;;;;;;;;;;17.20;99.90;;;;;;5036463;28;1481;-47
2021/10/07 07:45:50;;;;;;;;;;;17.10;99.90;;;;;;5052526;28;946;-47
2021/10/07 07:48:15;;;;;;;;;;;17.20;99.90;;;;;;5055384;28;1018;-47
2021/10/07 07:50:41;;;;;;;;;;;17.00;99.90;;;;;;5054921;28;1175;-47
2021/10/07 07:53:08;;;;;;;;;;;17.10;99.90;;;;;;5055168;28;1957;-47
2021/10/07 07:55:34;;;;;;;;;;;17.10;99.90;;;;;;5055136;28;1100;-47
2021/10/07 07:58:00;;;;;;;;;;;17.10;99.90;;;;;;5054997;28;1543;-47
2021/10/07 08:00:25;;;;;;;;;;;17.20;99.90;;;;;;5053847;28;1358;-47
2021/10/07 08:02:51;;;;;;;;;;;17.10;99.90;;;;;;5058998;28;1361;-47
2021/10/07 08:05:17;;;;;;;;;;;17.20;99.90;;;;;;5059398;28;1114;-47
2021/10/07 08:07:42;;;;;;;;;;;17.10;99.90;;;;;;5059167;28;1013;-47
2021/10/07 08:10:11;;;;;;;;;;;17.10;99.90;;;;;;5058939;28;1300;-47
2021/10/07 08:12:38;;;;;;;;;;;17.10;99.90;;;;;;5041005;28;1898;-47
2021/10/07 08:15:09;;;;;;;;;;;17.10;99.90;;;;;;5059069;28;951;-47
2021/10/07 08:17:36;;;;;;;;;;;17.10;99.90;;;;;;5059311;28;804;-47
2021/10/07 08:20:03;;;;;;;;;;;17.10;99.90;;;;;;5058215;28;1275;-47
2021/10/07 08:22:30;;;;;;;;;;;17.00;99.90;;;;;;5058975;28;1446;-47
2021/10/07 08:24:55;;;;;;;;;;;17.00;99.90;;;;;;5058912;28;1025;-51
2021/10/07 08:27:23;;;;;;;;;;;17.00;99.90;;;;;;5058441;28;1275;-51
2021/10/07 08:29:49;;;;;;;;;;;17.00;99.90;;;;;;5055273;28;1373;-51
2021/10/07 08:32:15;;;;;;;;;;;17.00;99.90;;;;;;5058176;28;1997;-51
2021/10/07 08:34:40;;;;;;;;;;;17.00;99.90;;;;;;5058602;28;961;-51
2021/10/07 08:37:07;;;;;;;;;;;17.00;99.90;;;;;;5058651;28;1232;-51
2021/10/07 08:39:33;;;;;;;;;;;17.00;99.90;;;;;;5058681;28;860;-51
2021/10/07 08:41:59;;;;;;;;;;;17.00;99.90;;;;;;5057929;28;1036;-51
2021/10/07 08:44:28;;;;;;;;;;;17.00;99.90;;;;;;5054020;28;1292;-51
2021/10/07 08:46:55;;;;;;;;;;;17.00;99.90;;;;;;5051318;28;1273;-51
2021/10/07 08:49:24;;;;;;;;;;;17.00;99.90;;;;;;5051010;28;1340;-47
2021/10/07 08:51:51;;;;;;;;;;;17.00;99.90;;;;;;5054021;28;1971;-47
2021/10/07 08:54:18;;;;;;;;;;;17.10;99.90;;;;;;5058060;28;988;-47
2021/10/07 08:56:45;;;;;;;;;;;17.10;99.90;;;;;;5057747;28;1099;-47
2021/10/07 08:59:11;;;;;;;;;;;17.30;99.90;;;;;;5056757;28;1186;-51
2021/10/07 09:01:38;;;;;;;;;;;17.40;99.90;;;;;;5057930;28;1100;-51
2021/10/07 09:04:22;;;;;;;;;;;17.60;99.90;;;;;;5057392;28;1115;-51
2021/10/07 09:06:52;;;;;;;;;;;17.60;99.90;;;;;;5055917;28;1585;-51
2021/10/07 09:09:19;;;;;;;;;;;17.80;99.90;;;;;;5040187;28;1383;-51
2021/10/07 09:11:54;;;;;;;;;;;17.80;99.90;;;;;;5053292;28;1135;-51
2021/10/07 09:14:25;;;;;;;;;;;17.90;99.90;;;;;;5047255;28;1037;-50
2021/10/07 09:16:53;;;;;;;;;;;18.00;99.90;;;;;;5058201;28;848;-50
2021/10/07 09:19:39;;;;;;;;;;;18.00;99.90;;;;;;5040369;28;1314;-51
2021/10/07 09:22:21;;;;;;;;;;;18.00;99.90;;;;;;5056383;28;1106;-51
2021/10/07 09:25:05;;;;;;;;;;;18.00;99.90;;;;;;5055314;28;1107;-51
2021/10/07 09:27:32;;;;;;;;;;;17.90;99.90;;;;;;5030117;28;1360;-51
2021/10/07 09:29:59;;;;;;;;;;;17.90;99.90;;;;;;5017083;28;1243;-51
2021/10/07 09:32:27;;;;;;;;;;;17.80;99.90;;;;;;5017891;28;1906;-51
2021/10/07 09:34:54;;;;;;;;;;;17.90;99.90;;;;;;5017802;28;837;-51
2021/10/07 09:37:27;;;;;;;;;;;17.90;99.90;;;;;;5017547;28;1029;-51
2021/10/07 09:39:57;;;;;;;;;;;17.90;99.90;;;;;;5016580;28;1252;-51
2021/10/07 09:42:28;;;;;;;;;;;17.90;99.90;;;;;;5011635;28;1028;-51
2021/10/07 09:45:02;;;;;;;;;;;17.90;99.90;;;;;;5016646;28;1088;-51
2021/10/07 09:47:29;;;;;;;;;;;17.90;99.90;;;;;;5017624;28;810;-51
2021/10/07 09:50:10;;;;;;;;;;;17.90;99.90;;;;;;5017595;28;842;-51
2021/10/07 09:52:36;;;;;;;;;;;17.90;99.90;;;;;;5016542;28;1954;-51
2021/10/07 09:55:07;;;;;;;;;;;18.00;99.90;;;;;;5017616;28;831;-51
2021/10/07 09:57:32;;;;;;;;;;;17.90;99.90;;;;;;5017643;28;858;-51
2021/10/07 09:59:58;;;;;;;;;;;18.00;99.90;;;;;;5017435;28;815;-51
2021/10/07 10:02:25;;;;;;;;;;;18.00;99.90;;;;;;5017383;28;1116;-51
2021/10/07 10:04:54;;;;;;;;;;;18.00;99.90;;;;;;5016643;28;1020;-51
2021/10/07 10:07:21;;;;;;;;;;;18.00;99.90;;;;;;5016770;28;903;-50
2021/10/07 10:09:47;;;;;;;;;;;18.00;99.90;;;;;;5015909;28;1048;-51
2021/10/07 10:12:13;;;;;;;;;;;18.00;99.90;;;;;;5015806;28;1915;-50
2021/10/07 10:14:38;;;;;;;;;;;18.00;99.90;;;;;;5017147;28;971;-50
2021/10/07 10:17:04;;;;;;;;;;;18.00;99.90;;;;;;5015137;28;1135;-49
2021/10/07 10:19:31;;;;;;;;;;;18.00;99.90;;;;;;5017048;28;1088;-50
2021/10/07 10:21:59;;;;;;;;;;;18.00;99.90;;;;;;5016246;28;986;-50
2021/10/07 10:24:26;;;;;;;;;;;18.00;99.90;;;;;;5016591;28;935;-50
2021/10/07 10:27:00;;;;;;;;;;;18.00;99.90;;;;;;5028584;28;1192;-50
2021/10/07 10:29:30;;;;;;;;;;;18.00;99.90;;;;;;5056265;28;1049;-50
2021/10/07 10:31:57;;;;;;;;;;;18.00;99.90;;;;;;5054882;28;1957;-50
2021/10/07 10:34:24;;;;;;;;;;;18.00;99.90;;;;;;5051420;28;802;-50
2021/10/07 10:36:53;;;;;;;;;;;18.00;99.90;;;;;;5051197;28;874;-50
2021/10/07 10:39:38;;;;;;;;;;;18.00;99.90;;;;;;5051508;28;769;-50
2021/10/07 10:42:05;;;;;;;;;;;18.00;99.90;;;;;;5056076;28;837;-50
2021/10/07 10:44:32;;;;;;;;;;;18.00;99.90;;;;;;5056498;28;925;-50
2021/10/07 10:47:16;;;;;;;;;;;18.00;99.90;;;;;;5056625;28;795;-50
2021/10/07 10:49:50;;;;;;;;;;;18.00;99.90;;;;;;5053055;28;1092;-50
2021/10/07 10:52:15;;;;;;;;;;;18.00;99.90;;;;;;5051176;28;1910;-50
2021/10/07 10:54:50;;;;;;;;;;;18.10;99.90;;;;;;5052842;28;1052;-50
2021/10/07 10:57:34;;;;;;;;;;;18.10;99.90;;;;;;5053570;28;1057;-50
2021/10/07 11:00:22;;;;;;;;;;;18.10;99.90;;;;;;5056028;28;837;-50
2021/10/07 11:03:17;;;;;;;;;;;18.10;99.90;;;;;;5042887;28;1752;-50
2021/10/07 11:06:03;;;;;;;;;;;18.30;99.90;;;;;;5038457;28;703;-50
2021/10/07 11:08:32;;;;;;;;;;;18.40;99.90;;;;;;5056083;28;822;-50
2021/10/07 11:11:00;;;;;;;;;;;18.50;99.90;;;;;;5056053;28;814;-50
2021/10/07 11:13:45;;;;;;;;;;;18.60;99.90;;;;;;5055891;28;1965;-50
2021/10/07 11:16:14;;;;;;;;;;;18.70;99.90;;;;;;5055793;28;1088;-50
2021/10/07 11:18:42;;;;;;;;;;;18.70;99.90;;;;;;5038642;28;849;-50
2021/10/07 11:21:12;;;;;;;;;;;18.70;99.90;;;;;;5054236;28;1072;-50
2021/10/07 11:23:38;;;;;;;;;;;18.60;99.90;;;;;;5054487;28;1107;-50
2021/10/07 11:26:04;;;;;;;;;;;18.60;99.90;;;;;;5055528;28;827;-50
2021/10/07 11:28:35;;;;;;;;;;;18.60;99.90;;;;;;5055432;28;1201;-50
2021/10/07 11:31:06;;;;;;;;;;;18.60;99.90;;;;;;5055651;28;848;-50
2021/10/07 11:33:32;;;;;;;;;;;18.70;99.90;;;;;;5055721;28;1914;-50
2021/10/07 11:36:00;;;;;;;;;;;18.80;99.90;;;;;;5055083;28;892;-50
2021/10/07 11:38:27;;;;;;;;;;;18.90;99.90;;;;;;5055919;28;859;-50
2021/10/07 11:40:54;;;;;;;;;;;18.90;99.90;;;;;;5055779;28;917;-50
2021/10/07 11:43:23;;;;;;;;;;;18.80;99.90;;;;;;5037576;28;1330;-50
2021/10/07 11:45:51;;;;;;;;;;;18.70;99.90;;;;;;5055550;28;903;-50
2021/10/07 11:48:17;;;;;;;;;;;18.70;99.90;;;;;;5055071;28;1106;-50
2021/10/07 11:50:44;;;;;;;;;;;18.70;99.90;;;;;;5038156;28;1399;-50
2021/10/07 11:53:11;;;;;;;;;;;18.70;99.90;;;;;;5055402;28;1969;-50
2021/10/07 11:55:42;;;;;;;;;;;18.80;99.90;;;;;;5038026;28;844;-50
2021/10/07 11:58:08;;;;;;;;;;;18.90;99.90;;;;;;5037815;28;891;-50
2021/10/07 12:00:52;;;;;;;;;;;18.90;99.90;;;;;;5054867;28;1119;-50
2021/10/07 12:03:22;;;;;;;;;;;19.00;99.90;;;;;;5052339;28;1044;-50
2021/10/07 12:05:53;;;;;;;;;;;19.00;99.90;;;;;;5055354;28;825;-50
2021/10/07 12:08:20;;;;;;;;;;;19.00;99.90;;;;;;5055320;28;1049;-50
2021/10/07 12:10:48;;;;;;;;;;;18.90;99.90;;;;;;5055329;28;829;-50
2021/10/07 12:13:15;;;;;;;;;;;19.00;99.90;;;;;;5055156;28;1965;-50
2021/10/07 12:15:48;;;;;;;;;;;19.00;99.90;;;;;;5055203;28;844;-50
2021/10/07 12:18:15;;;;;;;;;;;19.00;99.90;;;;;;5055225;28;864;-50
2021/10/07 12:20:54;;;;;;;;;;;19.00;99.90;;;;;;5055279;28;842;-50
2021/10/07 12:23:19;;;;;;;;;;;19.00;99.90;;;;;;5055111;28;884;-50
2021/10/07 12:25:45;;;;;;;;;;;19.00;99.90;;;;;;5054884;28;1117;-50
2021/10/07 12:28:16;;;;;;;;;;;19.00;99.90;;;;;;5054676;28;1247;-50
2021/10/07 12:31:08;;;;;;;;;;;19.10;99.90;;;;;;5053739;28;1156;-50
2021/10/07 12:33:34;;;;;;;;;;;19.10;99.90;;;;;;5033378;28;1914;-50
2021/10/07 12:36:07;;;;;;;;;;;19.00;99.90;;;;;;5055232;28;765;-50
2021/10/07 12:38:46;;;;;;;;;;;19.00;99.90;;;;;;5054990;28;855;-50
2021/10/07 12:41:11;;;;;;;;;;;18.90;99.90;;;;;;5054948;28;785;-50
2021/10/07 12:43:49;;;;;;;;;;;18.90;99.90;;;;;;5049003;28;848;-50
2021/10/07 12:46:19;;;;;;;;;;;18.80;99.90;;;;;;5055058;28;896;-50
2021/10/07 12:48:50;;;;;;;;;;;18.80;99.90;;;;;;5056992;28;761;-50
2021/10/07 12:51:16;;;;;;;;;;;18.80;99.90;;;;;;5058574;28;801;-50
2021/10/07 12:53:42;;;;;;;;;;;18.70;99.90;;;;;;5058360;28;1898;-50
2021/10/07 12:56:12;;;;;;;;;;;18.70;99.90;;;;;;5058320;28;762;-50
2021/10/07 12:58:45;;;;;;;;;;;18.70;99.90;;;;;;5058555;28;859;-50
2021/10/07 13:01:11;;;;;;;;;;;18.70;99.90;;;;;;5058334;28;781;-50
2021/10/07 13:03:37;;;;;;;;;;;18.70;99.90;;;;;;5058435;28;779;-50
2021/10/07 13:06:08;;;;;;;;;;;18.70;99.90;;;;;;5040553;28;947;-51
2021/10/07 13:08:35;;;;;;;;;;;18.70;99.90;;;;;;5058179;28;847;-51
2021/10/07 13:11:01;;;;;;;;;;;18.70;99.90;;;;;;5057987;28;755;-51
2021/10/07 13:13:30;;;;;;;;;;;18.60;99.90;;;;;;5057565;28;1901;-47
2021/10/07 13:15:58;;;;;;;;;;;18.60;99.90;;;;;;5024032;28;1214;-47
2021/10/07 13:18:26;;;;;;;;;;;18.60;99.90;;;;;;5058298;28;851;-47
2021/10/07 13:20:52;;;;;;;;;;;18.60;99.90;;;;;;5056105;28;1214;-47
2021/10/07 13:23:19;;;;;;;;;;;18.60;99.90;;;;;;5056545;28;1313;-47
2021/10/07 13:25:45;;;;;;;;;;;18.60;99.90;;;;;;5054334;28;1149;-47
2021/10/07 13:28:11;;;;;;;;;;;18.60;99.90;;;;;;5057326;28;1536;-47
2021/10/07 13:30:36;;;;;;;;;;;18.60;99.90;;;;;;5057822;28;810;-47
2021/10/07 13:33:05;;;;;;;;;;;18.60;99.90;;;;;;5057854;28;1910;-48
2021/10/07 13:35:32;;;;;;;;;;;18.50;99.90;;;;;;5057861;28;813;-47
2021/10/07 13:38:00;;;;;;;;;;;18.50;99.90;;;;;;5057501;28;902;-47
2021/10/07 13:40:26;;;;;;;;;;;18.50;99.90;;;;;;5057636;28;836;-48
2021/10/07 13:42:52;;;;;;;;;;;18.50;99.90;;;;;;5057485;28;788;-47
2021/10/07 13:45:19;;;;;;;;;;;18.50;99.90;;;;;;5057266;28;907;-47
2021/10/07 13:47:48;;;;;;;;;;;18.70;99.90;;;;;;5057396;28;763;-48
2021/10/07 13:50:15;;;;;;;;;;;18.70;99.90;;;;;;5057640;28;842;-47
2021/10/07 13:52:40;;;;;;;;;;;18.70;99.90;;;;;;5057295;28;1953;-47
2021/10/07 13:55:07;;;;;;;;;;;18.60;99.90;;;;;;5057339;28;953;-48
2021/10/07 13:57:34;;;;;;;;;;;18.60;99.90;;;;;;5057424;28;761;-48
2021/10/07 14:00:01;;;;;;;;;;;18.60;99.90;;;;;;5056836;28;894;-48
2021/10/07 14:02:27;;;;;;;;;;;18.60;99.90;;;;;;5057453;28;875;-47
2021/10/07 14:04:52;;;;;;;;;;;18.60;99.90;;;;;;5051574;28;1389;-50
2021/10/07 14:07:18;;;;;;;;;;;18.60;99.90;;;;;;5057126;28;862;-48
2021/10/07 14:09:45;;;;;;;;;;;18.60;99.90;;;;;;5055578;28;1026;-47
2021/10/07 14:12:11;;;;;;;;;;;18.60;99.90;;;;;;5042042;28;2013;-49
2021/10/07 14:14:39;;;;;;;;;;;18.50;99.90;;;;;;5051182;28;1358;-48
2021/10/07 14:17:06;;;;;;;;;;;18.50;99.90;;;;;;5054952;28;1155;-48
2021/10/07 14:19:33;;;;;;;;;;;18.40;99.90;;;;;;5056650;28;845;-48
2021/10/07 14:21:59;;;;;;;;;;;18.30;99.90;;;;;;5056513;28;950;-48
2021/10/07 14:24:25;;;;;;;;;;;18.30;99.90;;;;;;5056418;28;883;-48
2021/10/07 14:26:52;;;;;;;;;;;18.20;99.90;;;;;;5054969;28;1050;-48
2021/10/07 14:29:21;;;;;;;;;;;18.20;99.90;;;;;;5055738;28;1043;-48
2021/10/07 14:31:47;;;;;;;;;;;18.20;99.90;;;;;;5038466;28;1620;-47
2021/10/07 14:34:14;;;;;;;;;;;18.20;99.90;;;;;;5054407;28;1898;-47
2021/10/07 14:36:39;;;;;;;;;;;18.20;99.90;;;;;;5050601;28;1313;-50
2021/10/07 14:39:06;;;;;;;;;;;18.10;99.90;;;;;;5055867;28;1150;-48
2021/10/07 14:41:31;;;;;;;;;;;18.00;99.90;;;;;;5052468;28;1060;-48
2021/10/07 14:43:57;;;;;;;;;;;18.00;99.90;;;;;;5055518;28;824;-48
2021/10/07 14:46:25;;;;;;;;;;;18.00;99.90;;;;;;5056009;28;730;-47